sensor_id;sensor_type;location;lat;lon;timestamp;P1;durP1;ratioP1;P2;durP2;ratioP2
4959;SDS011;2495;48.200;11.532;2023-08-07T00:04:36;25.87;;;23.77;;
4959;SDS011;2495;48.200;11.532;2023-08-07T00:09:40;25.40;;;23.40;;
4959;SDS011;2495;48.200;11.532;2023-08-07T00:14:41;25.77;;;23.77;;
4959;SDS011;2495;48.200;11.532;2023-08-07T00:19:42;22.50;;;20.70;;
4959;SDS011;2495;48.200;11.532;2023-08-07T00:24:43;22.50;;;20.70;;
4959;SDS011;2495;48.200;11.532;2023-08-07T00:29:45;22.60;;;20.80;;
4959;SDS011;2495;48.200;11.532;2023-08-07T00:34:46;22.73;;;20.93;;
4959;SDS011;2495;48.200;11.532;2023-08-07T00:39:47;26.30;;;24.20;;
4959;SDS011;2495;48.200;11.532;2023-08-07T00:44:48;23.10;;;21.20;;
4959;SDS011;2495;48.200;11.532;2023-08-07T00:49:50;27.40;;;25.20;;
4959;SDS011;2495;48.200;11.532;2023-08-07T00:54:51;27.70;;;25.50;;
4959;SDS011;2495;48.200;11.532;2023-08-07T00:59:52;24.80;;;22.70;;
4959;SDS011;2495;48.200;11.532;2023-08-07T01:04:53;28.30;;;25.90;;
4959;SDS011;2495;48.200;11.532;2023-08-07T01:09:54;24.50;;;22.40;;
4959;SDS011;2495;48.200;11.532;2023-08-07T01:15:02;28.10;;;25.70;;
4959;SDS011;2495;48.200;11.532;2023-08-07T01:20:00;28.50;;;26.10;;
4959;SDS011;2495;48.200;11.532;2023-08-07T01:25:01;24.60;;;22.40;;
4959;SDS011;2495;48.200;11.532;2023-08-07T01:30:14;28.70;;;26.20;;
4959;SDS011;2495;48.200;11.532;2023-08-07T01:35:16;28.53;;;26.03;;
4959;SDS011;2495;48.200;11.532;2023-08-07T01:40:17;28.60;;;26.10;;
4959;SDS011;2495;48.200;11.532;2023-08-07T01:45:24;28.60;;;26.10;;
4959;SDS011;2495;48.200;11.532;2023-08-07T01:50:28;28.70;;;26.20;;
4959;SDS011;2495;48.200;11.532;2023-08-07T01:55:29;27.90;;;25.50;;
4959;SDS011;2495;48.200;11.532;2023-08-07T02:00:30;28.20;;;25.70;;
4959;SDS011;2495;48.200;11.532;2023-08-07T02:05:31;24.20;;;22.00;;
4959;SDS011;2495;48.200;11.532;2023-08-07T02:10:33;29.60;;;27.10;;
4959;SDS011;2495;48.200;11.532;2023-08-07T02:15:34;28.00;;;25.50;;
4959;SDS011;2495;48.200;11.532;2023-08-07T02:20:35;28.50;;;26.00;;
4959;SDS011;2495;48.200;11.532;2023-08-07T02:25:36;24.50;;;22.30;;
4959;SDS011;2495;48.200;11.532;2023-08-07T02:30:37;27.90;;;25.50;;
4959;SDS011;2495;48.200;11.532;2023-08-07T02:35:39;27.80;;;25.40;;
4959;SDS011;2495;48.200;11.532;2023-08-07T02:40:40;27.97;;;25.53;;
4959;SDS011;2495;48.200;11.532;2023-08-07T02:45:41;28.40;;;25.90;;
4959;SDS011;2495;48.200;11.532;2023-08-07T02:50:42;24.40;;;22.20;;
4959;SDS011;2495;48.200;11.532;2023-08-07T02:55:44;24.50;;;22.30;;
4959;SDS011;2495;48.200;11.532;2023-08-07T03:00:45;28.13;;;25.63;;
4959;SDS011;2495;48.200;11.532;2023-08-07T03:05:49;27.90;;;25.40;;
4959;SDS011;2495;48.200;11.532;2023-08-07T03:10:54;28.40;;;25.80;;
4959;SDS011;2495;48.200;11.532;2023-08-07T03:15:58;24.80;;;22.60;;
4959;SDS011;2495;48.200;11.532;2023-08-07T03:21:02;24.40;;;22.20;;
4959;SDS011;2495;48.200;11.532;2023-08-07T03:31:07;25.20;;;22.90;;
4959;SDS011;2495;48.200;11.532;2023-08-07T03:36:08;24.83;;;22.63;;
4959;SDS011;2495;48.200;11.532;2023-08-07T03:41:12;24.80;;;22.60;;
4959;SDS011;2495;48.200;11.532;2023-08-07T03:46:13;28.40;;;25.90;;
4959;SDS011;2495;48.200;11.532;2023-08-07T03:51:15;25.00;;;22.80;;
4959;SDS011;2495;48.200;11.532;2023-08-07T03:56:16;28.17;;;25.67;;
4959;SDS011;2495;48.200;11.532;2023-08-07T04:01:17;28.70;;;26.10;;
4959;SDS011;2495;48.200;11.532;2023-08-07T04:06:19;31.93;;;29.53;;
4959;SDS011;2495;48.200;11.532;2023-08-07T04:11:20;28.60;;;26.00;;
4959;SDS011;2495;48.200;11.532;2023-08-07T04:16:21;30.50;;;28.00;;
4959;SDS011;2495;48.200;11.532;2023-08-07T04:21:22;28.20;;;25.60;;
4959;SDS011;2495;48.200;11.532;2023-08-07T04:26:24;29.97;;;27.33;;
4959;SDS011;2495;48.200;11.532;2023-08-07T04:31:25;25.00;;;22.70;;
4959;SDS011;2495;48.200;11.532;2023-08-07T04:36:26;29.53;;;26.93;;
4959;SDS011;2495;48.200;11.532;2023-08-07T04:41:27;27.90;;;25.30;;
4959;SDS011;2495;48.200;11.532;2023-08-07T04:46:28;29.80;;;27.37;;
4959;SDS011;2495;48.200;11.532;2023-08-07T04:51:30;27.33;;;24.90;;
4959;SDS011;2495;48.200;11.532;2023-08-07T04:56:31;29.40;;;26.90;;
4959;SDS011;2495;48.200;11.532;2023-08-07T05:01:32;29.43;;;26.83;;
4959;SDS011;2495;48.200;11.532;2023-08-07T05:06:33;27.80;;;25.30;;
4959;SDS011;2495;48.200;11.532;2023-08-07T05:11:34;25.10;;;22.90;;
4959;SDS011;2495;48.200;11.532;2023-08-07T05:16:36;27.63;;;25.10;;
4959;SDS011;2495;48.200;11.532;2023-08-07T05:21:37;29.80;;;27.10;;
4959;SDS011;2495;48.200;11.532;2023-08-07T05:26:38;27.60;;;25.10;;
4959;SDS011;2495;48.200;11.532;2023-08-07T05:31:40;27.47;;;24.90;;
4959;SDS011;2495;48.200;11.532;2023-08-07T05:36:41;24.60;;;22.40;;
4959;SDS011;2495;48.200;11.532;2023-08-07T05:41:42;29.13;;;26.70;;
4959;SDS011;2495;48.200;11.532;2023-08-07T05:46:44;24.23;;;22.13;;
4959;SDS011;2495;48.200;11.532;2023-08-07T05:51:45;24.63;;;22.53;;
4959;SDS011;2495;48.200;11.532;2023-08-07T05:56:47;26.67;;;24.27;;
4959;SDS011;2495;48.200;11.532;2023-08-07T06:01:48;26.57;;;24.17;;
4959;SDS011;2495;48.200;11.532;2023-08-07T06:06:49;26.70;;;24.30;;
4959;SDS011;2495;48.200;11.532;2023-08-07T06:11:51;24.50;;;22.30;;
4959;SDS011;2495;48.200;11.532;2023-08-07T06:16:52;24.40;;;22.30;;
4959;SDS011;2495;48.200;11.532;2023-08-07T06:21:53;27.67;;;25.27;;
4959;SDS011;2495;48.200;11.532;2023-08-07T06:26:54;24.70;;;22.60;;
4959;SDS011;2495;48.200;11.532;2023-08-07T06:31:56;24.40;;;22.30;;
4959;SDS011;2495;48.200;11.532;2023-08-07T06:36:57;26.40;;;24.17;;
4959;SDS011;2495;48.200;11.532;2023-08-07T06:41:58;28.10;;;25.70;;
4959;SDS011;2495;48.200;11.532;2023-08-07T06:47:00;26.50;;;24.20;;
4959;SDS011;2495;48.200;11.532;2023-08-07T06:52:01;25.80;;;23.60;;
4959;SDS011;2495;48.200;11.532;2023-08-07T06:57:02;26.50;;;24.20;;
4959;SDS011;2495;48.200;11.532;2023-08-07T07:02:04;26.27;;;23.97;;
4959;SDS011;2495;48.200;11.532;2023-08-07T07:07:05;25.77;;;23.57;;
4959;SDS011;2495;48.200;11.532;2023-08-07T07:12:06;53.83;;;24.93;;
4959;SDS011;2495;48.200;11.532;2023-08-07T07:17:08;25.87;;;23.67;;
4959;SDS011;2495;48.200;11.532;2023-08-07T07:22:09;25.70;;;23.50;;
4959;SDS011;2495;48.200;11.532;2023-08-07T07:27:10;22.80;;;21.00;;
4959;SDS011;2495;48.200;11.532;2023-08-07T07:32:12;25.57;;;23.47;;
4959;SDS011;2495;48.200;11.532;2023-08-07T07:37:13;25.27;;;23.20;;
4959;SDS011;2495;48.200;11.532;2023-08-07T07:42:15;23.52;;;21.62;;
4959;SDS011;2495;48.200;11.532;2023-08-07T07:47:16;25.97;;;23.87;;
4959;SDS011;2495;48.200;11.532;2023-08-07T07:52:17;23.80;;;21.90;;
4959;SDS011;2495;48.200;11.532;2023-08-07T07:57:18;25.03;;;23.03;;
4959;SDS011;2495;48.200;11.532;2023-08-07T08:02:20;25.10;;;23.10;;
4959;SDS011;2495;48.200;11.532;2023-08-07T08:07:21;26.60;;;24.50;;
4959;SDS011;2495;48.200;11.532;2023-08-07T08:12:22;23.10;;;21.30;;
4959;SDS011;2495;48.200;11.532;2023-08-07T08:17:23;25.90;;;23.80;;
4959;SDS011;2495;48.200;11.532;2023-08-07T08:22:25;26.20;;;24.10;;
4959;SDS011;2495;48.200;11.532;2023-08-07T08:27:26;25.73;;;23.70;;
4959;SDS011;2495;48.200;11.532;2023-08-07T08:32:28;26.00;;;23.90;;
4959;SDS011;2495;48.200;11.532;2023-08-07T08:37:29;26.50;;;24.40;;
4959;SDS011;2495;48.200;11.532;2023-08-07T08:42:31;23.20;;;21.40;;
4959;SDS011;2495;48.200;11.532;2023-08-07T08:47:32;26.83;;;24.63;;
4959;SDS011;2495;48.200;11.532;2023-08-07T08:52:35;26.00;;;23.90;;
4959;SDS011;2495;48.200;11.532;2023-08-07T08:57:35;23.00;;;21.20;;
4959;SDS011;2495;48.200;11.532;2023-08-07T09:02:36;25.73;;;23.73;;
4959;SDS011;2495;48.200;11.532;2023-08-07T09:07:37;23.40;;;21.60;;
4959;SDS011;2495;48.200;11.532;2023-08-07T09:12:40;25.80;;;23.80;;
4959;SDS011;2495;48.200;11.532;2023-08-07T09:17:47;25.87;;;23.87;;
4959;SDS011;2495;48.200;11.532;2023-08-07T09:22:48;26.43;;;24.33;;
4959;SDS011;2495;48.200;11.532;2023-08-07T09:27:50;25.70;;;23.70;;
4959;SDS011;2495;48.200;11.532;2023-08-07T09:32:51;23.00;;;21.20;;
4959;SDS011;2495;48.200;11.532;2023-08-07T09:37:52;25.60;;;23.60;;
4959;SDS011;2495;48.200;11.532;2023-08-07T09:42:54;25.53;;;23.53;;
4959;SDS011;2495;48.200;11.532;2023-08-07T09:48:14;25.40;;;23.40;;
4959;SDS011;2495;48.200;11.532;2023-08-07T09:53:03;25.70;;;23.70;;
4959;SDS011;2495;48.200;11.532;2023-08-07T09:58:05;25.10;;;23.20;;
4959;SDS011;2495;48.200;11.532;2023-08-07T10:03:05;25.30;;;23.40;;
4959;SDS011;2495;48.200;11.532;2023-08-07T10:08:07;24.87;;;22.97;;
4959;SDS011;2495;48.200;11.532;2023-08-07T10:13:08;25.10;;;23.20;;
4959;SDS011;2495;48.200;11.532;2023-08-07T10:18:09;22.00;;;20.40;;
4959;SDS011;2495;48.200;11.532;2023-08-07T10:23:11;24.40;;;22.60;;
4959;SDS011;2495;48.200;11.532;2023-08-07T10:28:13;24.17;;;22.47;;
4959;SDS011;2495;48.200;11.532;2023-08-07T10:33:14;24.40;;;22.60;;
4959;SDS011;2495;48.200;11.532;2023-08-07T10:38:18;24.57;;;22.87;;
4959;SDS011;2495;48.200;11.532;2023-08-07T10:43:17;25.07;;;23.27;;
4959;SDS011;2495;48.200;11.532;2023-08-07T10:48:18;23.90;;;22.30;;
4959;SDS011;2495;48.200;11.532;2023-08-07T10:58:47;22.80;;;21.30;;
4959;SDS011;2495;48.200;11.532;2023-08-07T11:03:44;22.60;;;21.10;;
4959;SDS011;2495;48.200;11.532;2023-08-07T11:08:45;22.80;;;21.30;;
4959;SDS011;2495;48.200;11.532;2023-08-07T11:13:47;22.00;;;20.60;;
4959;SDS011;2495;48.200;11.532;2023-08-07T11:18:48;21.03;;;19.73;;
4959;SDS011;2495;48.200;11.532;2023-08-07T11:23:49;21.13;;;19.83;;
4959;SDS011;2495;48.200;11.532;2023-08-07T11:28:50;21.60;;;20.30;;
4959;SDS011;2495;48.200;11.532;2023-08-07T11:33:55;21.40;;;20.10;;
4959;SDS011;2495;48.200;11.532;2023-08-07T11:38:56;20.60;;;19.40;;
4959;SDS011;2495;48.200;11.532;2023-08-07T11:43:57;19.30;;;18.30;;
4959;SDS011;2495;48.200;11.532;2023-08-07T11:48:58;16.40;;;15.60;;
4959;SDS011;2495;48.200;11.532;2023-08-07T11:54:00;15.50;;;14.70;;
4959;SDS011;2495;48.200;11.532;2023-08-07T11:59:01;14.80;;;14.10;;
4959;SDS011;2495;48.200;11.532;2023-08-07T12:09:06;11.40;;;10.87;;
4959;SDS011;2495;48.200;11.532;2023-08-07T12:14:13;14.70;;;14.00;;
4959;SDS011;2495;48.200;11.532;2023-08-07T12:19:12;11.20;;;10.70;;
4959;SDS011;2495;48.200;11.532;2023-08-07T12:24:13;11.90;;;11.30;;
4959;SDS011;2495;48.200;11.532;2023-08-07T12:29:14;7.70;;;7.30;;
4959;SDS011;2495;48.200;11.532;2023-08-07T12:34:15;10.83;;;10.33;;
4959;SDS011;2495;48.200;11.532;2023-08-07T12:39:17;8.37;;;7.97;;
4959;SDS011;2495;48.200;11.532;2023-08-07T12:44:18;11.40;;;10.90;;
4959;SDS011;2495;48.200;11.532;2023-08-07T12:49:20;11.53;;;11.03;;
4959;SDS011;2495;48.200;11.532;2023-08-07T12:54:21;8.77;;;8.37;;
4959;SDS011;2495;48.200;11.532;2023-08-07T12:59:22;8.67;;;8.27;;
4959;SDS011;2495;48.200;11.532;2023-08-07T13:04:24;10.17;;;9.67;;
4959;SDS011;2495;48.200;11.532;2023-08-07T13:09:25;9.47;;;8.97;;
4959;SDS011;2495;48.200;11.532;2023-08-07T13:14:26;7.80;;;7.40;;
4959;SDS011;2495;48.200;11.532;2023-08-07T13:19:27;7.90;;;7.50;;
4959;SDS011;2495;48.200;11.532;2023-08-07T13:24:28;8.30;;;7.90;;
4959;SDS011;2495;48.200;11.532;2023-08-07T13:29:30;8.20;;;7.80;;
4959;SDS011;2495;48.200;11.532;2023-08-07T13:34:31;4.80;;;4.50;;
4959;SDS011;2495;48.200;11.532;2023-08-07T13:39:32;5.67;;;5.37;;
4959;SDS011;2495;48.200;11.532;2023-08-07T13:44:33;6.13;;;5.83;;
4959;SDS011;2495;48.200;11.532;2023-08-07T13:49:35;6.40;;;6.10;;
4959;SDS011;2495;48.200;11.532;2023-08-07T13:54:36;5.97;;;5.67;;
4959;SDS011;2495;48.200;11.532;2023-08-07T13:59:38;4.20;;;4.00;;
4959;SDS011;2495;48.200;11.532;2023-08-07T14:04:39;2.30;;;2.20;;
4959;SDS011;2495;48.200;11.532;2023-08-07T14:09:40;2.20;;;2.10;;
4959;SDS011;2495;48.200;11.532;2023-08-07T14:14:42;1.90;;;1.80;;
4959;SDS011;2495;48.200;11.532;2023-08-07T14:19:43;2.90;;;2.70;;
4959;SDS011;2495;48.200;11.532;2023-08-07T14:24:44;2.37;;;2.27;;
4959;SDS011;2495;48.200;11.532;2023-08-07T14:29:45;2.60;;;2.40;;
4959;SDS011;2495;48.200;11.532;2023-08-07T14:34:47;1.30;;;1.00;;
4959;SDS011;2495;48.200;11.532;2023-08-07T14:39:48;2.17;;;2.07;;
4959;SDS011;2495;48.200;11.532;2023-08-07T14:44:49;1.20;;;0.70;;
4959;SDS011;2495;48.200;11.532;2023-08-07T14:49:50;1.80;;;1.70;;
4959;SDS011;2495;48.200;11.532;2023-08-07T14:54:51;1.53;;;1.43;;
4959;SDS011;2495;48.200;11.532;2023-08-07T14:59:53;1.90;;;1.80;;
4959;SDS011;2495;48.200;11.532;2023-08-07T15:04:54;1.30;;;1.00;;
4959;SDS011;2495;48.200;11.532;2023-08-07T15:09:55;1.40;;;1.30;;
4959;SDS011;2495;48.200;11.532;2023-08-07T15:14:56;1.40;;;1.30;;
4959;SDS011;2495;48.200;11.532;2023-08-07T15:19:58;1.30;;;1.10;;
4959;SDS011;2495;48.200;11.532;2023-08-07T15:24:59;1.33;;;1.20;;
4959;SDS011;2495;48.200;11.532;2023-08-07T15:30:00;1.10;;;0.60;;
4959;SDS011;2495;48.200;11.532;2023-08-07T15:35:01;1.20;;;0.80;;
4959;SDS011;2495;48.200;11.532;2023-08-07T15:40:03;1.30;;;1.00;;
4959;SDS011;2495;48.200;11.532;2023-08-07T15:45:04;1.30;;;1.00;;
4959;SDS011;2495;48.200;11.532;2023-08-07T15:50:06;1.27;;;1.00;;
4959;SDS011;2495;48.200;11.532;2023-08-07T15:55:08;1.27;;;0.90;;
4959;SDS011;2495;48.200;11.532;2023-08-07T16:00:09;1.20;;;0.90;;
4959;SDS011;2495;48.200;11.532;2023-08-07T16:05:11;1.20;;;0.80;;
4959;SDS011;2495;48.200;11.532;2023-08-07T16:10:12;1.20;;;0.80;;
4959;SDS011;2495;48.200;11.532;2023-08-07T16:15:13;1.20;;;0.70;;
4959;SDS011;2495;48.200;11.532;2023-08-07T16:20:15;1.10;;;0.70;;
4959;SDS011;2495;48.200;11.532;2023-08-07T16:25:16;1.10;;;0.60;;
4959;SDS011;2495;48.200;11.532;2023-08-07T16:30:17;1.20;;;0.70;;
4959;SDS011;2495;48.200;11.532;2023-08-07T16:35:18;1.17;;;0.70;;
4959;SDS011;2495;48.200;11.532;2023-08-07T16:40:20;1.10;;;0.70;;
4959;SDS011;2495;48.200;11.532;2023-08-07T16:45:21;1.10;;;0.70;;
4959;SDS011;2495;48.200;11.532;2023-08-07T16:50:22;1.10;;;0.67;;
4959;SDS011;2495;48.200;11.532;2023-08-07T16:55:23;1.20;;;0.70;;
4959;SDS011;2495;48.200;11.532;2023-08-07T17:00:25;1.10;;;0.60;;
4959;SDS011;2495;48.200;11.532;2023-08-07T17:05:26;1.13;;;0.70;;
4959;SDS011;2495;48.200;11.532;2023-08-07T17:10:27;1.10;;;0.70;;
4959;SDS011;2495;48.200;11.532;2023-08-07T17:15:28;1.10;;;0.50;;
4959;SDS011;2495;48.200;11.532;2023-08-07T17:20:30;1.20;;;0.70;;
4959;SDS011;2495;48.200;11.532;2023-08-07T17:25:31;1.13;;;0.60;;
4959;SDS011;2495;48.200;11.532;2023-08-07T17:30:32;1.10;;;0.60;;
4959;SDS011;2495;48.200;11.532;2023-08-07T17:35:33;1.17;;;0.70;;
4959;SDS011;2495;48.200;11.532;2023-08-07T17:40:35;1.20;;;0.70;;
4959;SDS011;2495;48.200;11.532;2023-08-07T17:45:36;1.20;;;0.70;;
4959;SDS011;2495;48.200;11.532;2023-08-07T17:50:37;1.10;;;0.60;;
4959;SDS011;2495;48.200;11.532;2023-08-07T17:55:38;1.10;;;0.60;;
4959;SDS011;2495;48.200;11.532;2023-08-07T18:00:40;1.10;;;0.60;;
4959;SDS011;2495;48.200;11.532;2023-08-07T18:05:41;1.30;;;0.80;;
4959;SDS011;2495;48.200;11.532;2023-08-07T18:10:42;1.10;;;0.70;;
4959;SDS011;2495;48.200;11.532;2023-08-07T18:15:44;1.10;;;0.60;;
4959;SDS011;2495;48.200;11.532;2023-08-07T18:20:45;1.10;;;0.60;;
4959;SDS011;2495;48.200;11.532;2023-08-07T18:25:46;1.10;;;0.60;;
4959;SDS011;2495;48.200;11.532;2023-08-07T18:30:48;1.10;;;0.60;;
4959;SDS011;2495;48.200;11.532;2023-08-07T18:35:49;1.10;;;0.60;;
4959;SDS011;2495;48.200;11.532;2023-08-07T18:40:53;1.10;;;0.60;;
4959;SDS011;2495;48.200;11.532;2023-08-07T18:45:54;1.10;;;0.60;;
4959;SDS011;2495;48.200;11.532;2023-08-07T18:50:55;1.10;;;0.60;;
4959;SDS011;2495;48.200;11.532;2023-08-07T18:55:56;1.10;;;0.60;;
4959;SDS011;2495;48.200;11.532;2023-08-07T19:00:58;1.10;;;0.60;;
4959;SDS011;2495;48.200;11.532;2023-08-07T19:05:59;1.20;;;0.60;;
4959;SDS011;2495;48.200;11.532;2023-08-07T19:11:00;1.20;;;0.60;;
4959;SDS011;2495;48.200;11.532;2023-08-07T19:16:02;1.20;;;0.70;;
4959;SDS011;2495;48.200;11.532;2023-08-07T19:21:03;1.13;;;0.70;;
4959;SDS011;2495;48.200;11.532;2023-08-07T19:26:04;1.17;;;0.60;;
4959;SDS011;2495;48.200;11.532;2023-08-07T19:31:06;1.10;;;0.60;;
4959;SDS011;2495;48.200;11.532;2023-08-07T19:36:07;1.17;;;0.60;;
4959;SDS011;2495;48.200;11.532;2023-08-07T19:41:08;1.13;;;0.60;;
4959;SDS011;2495;48.200;11.532;2023-08-07T19:46:09;1.10;;;0.60;;
4959;SDS011;2495;48.200;11.532;2023-08-07T19:51:10;1.20;;;0.70;;
4959;SDS011;2495;48.200;11.532;2023-08-07T19:56:12;1.10;;;0.50;;
4959;SDS011;2495;48.200;11.532;2023-08-07T20:01:13;1.10;;;0.60;;
4959;SDS011;2495;48.200;11.532;2023-08-07T20:06:15;1.10;;;0.70;;
4959;SDS011;2495;48.200;11.532;2023-08-07T20:11:16;1.13;;;0.60;;
4959;SDS011;2495;48.200;11.532;2023-08-07T20:16:18;1.20;;;0.70;;
4959;SDS011;2495;48.200;11.532;2023-08-07T20:21:20;1.10;;;0.60;;
4959;SDS011;2495;48.200;11.532;2023-08-07T20:26:21;1.20;;;0.60;;
4959;SDS011;2495;48.200;11.532;2023-08-07T20:31:22;1.10;;;0.70;;
4959;SDS011;2495;48.200;11.532;2023-08-07T20:36:28;1.10;;;0.50;;
4959;SDS011;2495;48.200;11.532;2023-08-07T20:41:29;1.10;;;0.60;;
4959;SDS011;2495;48.200;11.532;2023-08-07T20:46:31;1.10;;;0.60;;
4959;SDS011;2495;48.200;11.532;2023-08-07T20:51:33;1.13;;;0.70;;
4959;SDS011;2495;48.200;11.532;2023-08-07T20:56:34;1.17;;;0.60;;
4959;SDS011;2495;48.200;11.532;2023-08-07T21:01:35;1.20;;;0.70;;
4959;SDS011;2495;48.200;11.532;2023-08-07T21:06:36;1.17;;;0.60;;
4959;SDS011;2495;48.200;11.532;2023-08-07T21:11:38;1.10;;;0.60;;
4959;SDS011;2495;48.200;11.532;2023-08-07T21:16:40;1.10;;;0.60;;
4959;SDS011;2495;48.200;11.532;2023-08-07T21:21:41;1.20;;;0.70;;
4959;SDS011;2495;48.200;11.532;2023-08-07T21:26:42;1.10;;;0.50;;
4959;SDS011;2495;48.200;11.532;2023-08-07T21:31:43;1.10;;;0.70;;
4959;SDS011;2495;48.200;11.532;2023-08-07T21:36:45;1.10;;;0.60;;
4959;SDS011;2495;48.200;11.532;2023-08-07T21:41:46;1.20;;;0.60;;
4959;SDS011;2495;48.200;11.532;2023-08-07T21:46:47;1.20;;;0.70;;
4959;SDS011;2495;48.200;11.532;2023-08-07T21:51:48;1.10;;;0.70;;
4959;SDS011;2495;48.200;11.532;2023-08-07T21:56:50;1.10;;;0.60;;
4959;SDS011;2495;48.200;11.532;2023-08-07T22:01:51;1.20;;;0.60;;
4959;SDS011;2495;48.200;11.532;2023-08-07T22:06:53;1.10;;;0.50;;
4959;SDS011;2495;48.200;11.532;2023-08-07T22:11:55;1.10;;;0.60;;
4959;SDS011;2495;48.200;11.532;2023-08-07T22:16:56;1.10;;;0.60;;
4959;SDS011;2495;48.200;11.532;2023-08-07T22:21:57;1.10;;;0.60;;
4959;SDS011;2495;48.200;11.532;2023-08-07T22:26:59;1.10;;;0.60;;
4959;SDS011;2495;48.200;11.532;2023-08-07T22:32:01;1.20;;;0.60;;
4959;SDS011;2495;48.200;11.532;2023-08-07T22:37:03;1.20;;;0.60;;
4959;SDS011;2495;48.200;11.532;2023-08-07T22:42:05;1.10;;;0.70;;
4959;SDS011;2495;48.200;11.532;2023-08-07T22:47:06;1.17;;;0.67;;
4959;SDS011;2495;48.200;11.532;2023-08-07T22:52:09;1.10;;;0.60;;
4959;SDS011;2495;48.200;11.532;2023-08-07T22:57:11;1.10;;;0.60;;
4959;SDS011;2495;48.200;11.532;2023-08-07T23:02:12;1.10;;;0.60;;
4959;SDS011;2495;48.200;11.532;2023-08-07T23:07:13;1.10;;;0.60;;
4959;SDS011;2495;48.200;11.532;2023-08-07T23:12:14;1.10;;;0.60;;
4959;SDS011;2495;48.200;11.532;2023-08-07T23:17:16;1.10;;;0.60;;
4959;SDS011;2495;48.200;11.532;2023-08-07T23:22:17;1.10;;;0.60;;
4959;SDS011;2495;48.200;11.532;2023-08-07T23:27:18;1.10;;;0.60;;
4959;SDS011;2495;48.200;11.532;2023-08-07T23:32:20;1.17;;;0.60;;
4959;SDS011;2495;48.200;11.532;2023-08-07T23:37:22;1.10;;;0.60;;
4959;SDS011;2495;48.200;11.532;2023-08-07T23:42:24;1.10;;;0.60;;
4959;SDS011;2495;48.200;11.532;2023-08-07T23:47:25;1.10;;;0.60;;
4959;SDS011;2495;48.200;11.532;2023-08-07T23:52:26;1.10;;;0.60;;
4959;SDS011;2495;48.200;11.532;2023-08-07T23:57:27;1.10;;;0.60;;
